sensor_id;sensor_type;location;lat;lon;timestamp;P1;durP1;ratioP1;P2;durP2;ratioP2
17091;SDS011;8661;45.700;4.880;2023-06-19T00:01:58;4.40;;;4.00;;
17091;SDS011;8661;45.700;4.880;2023-06-19T00:04:25;6.97;;;4.13;;
17091;SDS011;8661;45.700;4.880;2023-06-19T00:06:54;6.60;;;3.90;;
17091;SDS011;8661;45.700;4.880;2023-06-19T00:09:21;4.87;;;3.67;;
17091;SDS011;8661;45.700;4.880;2023-06-19T00:11:47;4.73;;;4.07;;
17091;SDS011;8661;45.700;4.880;2023-06-19T00:14:14;5.87;;;3.70;;
17091;SDS011;8661;45.700;4.880;2023-06-19T00:16:42;4.47;;;3.57;;
17091;SDS011;8661;45.700;4.880;2023-06-19T00:19:09;5.03;;;3.97;;
17091;SDS011;8661;45.700;4.880;2023-06-19T00:21:37;5.70;;;3.90;;
17091;SDS011;8661;45.700;4.880;2023-06-19T00:24:06;5.63;;;4.10;;
17091;SDS011;8661;45.700;4.880;2023-06-19T00:26:33;5.60;;;4.10;;
17091;SDS011;8661;45.700;4.880;2023-06-19T00:28:59;5.07;;;4.57;;
17091;SDS011;8661;45.700;4.880;2023-06-19T00:31:27;4.37;;;3.90;;
17091;SDS011;8661;45.700;4.880;2023-06-19T00:33:54;4.87;;;4.30;;
17091;SDS011;8661;45.700;4.880;2023-06-19T00:36:22;6.20;;;4.20;;
17091;SDS011;8661;45.700;4.880;2023-06-19T00:38:51;6.63;;;3.90;;
17091;SDS011;8661;45.700;4.880;2023-06-19T00:41:19;5.80;;;3.87;;
17091;SDS011;8661;45.700;4.880;2023-06-19T00:43:47;5.77;;;4.23;;
17091;SDS011;8661;45.700;4.880;2023-06-19T00:46:14;5.83;;;4.20;;
17091;SDS011;8661;45.700;4.880;2023-06-19T00:48:44;5.80;;;3.77;;
17091;SDS011;8661;45.700;4.880;2023-06-19T00:51:11;4.10;;;3.70;;
17091;SDS011;8661;45.700;4.880;2023-06-19T00:53:38;5.87;;;4.10;;
17091;SDS011;8661;45.700;4.880;2023-06-19T00:56:05;5.03;;;3.63;;
17091;SDS011;8661;45.700;4.880;2023-06-19T00:58:33;3.97;;;3.50;;
17091;SDS011;8661;45.700;4.880;2023-06-19T01:01:01;5.90;;;4.20;;
17091;SDS011;8661;45.700;4.880;2023-06-19T01:03:28;7.93;;;4.00;;
17091;SDS011;8661;45.700;4.880;2023-06-19T01:05:55;3.70;;;3.37;;
17091;SDS011;8661;45.700;4.880;2023-06-19T01:08:37;7.17;;;4.73;;
17091;SDS011;8661;45.700;4.880;2023-06-19T01:11:09;3.93;;;3.53;;
17091;SDS011;8661;45.700;4.880;2023-06-19T01:13:41;4.67;;;3.70;;
17091;SDS011;8661;45.700;4.880;2023-06-19T01:16:13;3.80;;;3.50;;
17091;SDS011;8661;45.700;4.880;2023-06-19T01:18:42;6.47;;;3.87;;
17091;SDS011;8661;45.700;4.880;2023-06-19T01:21:10;4.33;;;3.93;;
17091;SDS011;8661;45.700;4.880;2023-06-19T01:23:39;5.60;;;4.27;;
17091;SDS011;8661;45.700;4.880;2023-06-19T01:26:06;7.00;;;3.80;;
17091;SDS011;8661;45.700;4.880;2023-06-19T01:28:33;4.33;;;3.80;;
17091;SDS011;8661;45.700;4.880;2023-06-19T01:31:02;4.20;;;3.70;;
17091;SDS011;8661;45.700;4.880;2023-06-19T01:33:32;4.93;;;3.50;;
17091;SDS011;8661;45.700;4.880;2023-06-19T01:36:02;4.57;;;4.10;;
17091;SDS011;8661;45.700;4.880;2023-06-19T01:38:29;3.90;;;3.60;;
17091;SDS011;8661;45.700;4.880;2023-06-19T01:40:59;4.87;;;3.77;;
17091;SDS011;8661;45.700;4.880;2023-06-19T01:43:28;6.63;;;3.60;;
17091;SDS011;8661;45.700;4.880;2023-06-19T01:45:57;6.50;;;3.90;;
17091;SDS011;8661;45.700;4.880;2023-06-19T01:48:25;6.00;;;3.87;;
17091;SDS011;8661;45.700;4.880;2023-06-19T01:50:53;6.70;;;3.63;;
17091;SDS011;8661;45.700;4.880;2023-06-19T01:53:20;5.87;;;3.67;;
17091;SDS011;8661;45.700;4.880;2023-06-19T01:55:47;4.37;;;3.97;;
17091;SDS011;8661;45.700;4.880;2023-06-19T01:58:15;4.13;;;3.73;;
17091;SDS011;8661;45.700;4.880;2023-06-19T02:00:42;5.00;;;3.93;;
17091;SDS011;8661;45.700;4.880;2023-06-19T02:03:09;8.10;;;3.80;;
17091;SDS011;8661;45.700;4.880;2023-06-19T02:05:36;4.17;;;3.70;;
17091;SDS011;8661;45.700;4.880;2023-06-19T02:08:04;4.10;;;3.70;;
17091;SDS011;8661;45.700;4.880;2023-06-19T02:10:31;4.40;;;3.70;;
17091;SDS011;8661;45.700;4.880;2023-06-19T02:12:58;3.87;;;3.47;;
17091;SDS011;8661;45.700;4.880;2023-06-19T02:15:27;3.60;;;3.30;;
17091;SDS011;8661;45.700;4.880;2023-06-19T02:17:54;6.97;;;3.73;;
17091;SDS011;8661;45.700;4.880;2023-06-19T02:20:22;4.27;;;3.57;;
17091;SDS011;8661;45.700;4.880;2023-06-19T02:22:50;3.77;;;3.40;;
17091;SDS011;8661;45.700;4.880;2023-06-19T02:25:17;3.87;;;3.37;;
17091;SDS011;8661;45.700;4.880;2023-06-19T02:27:44;3.83;;;3.07;;
17091;SDS011;8661;45.700;4.880;2023-06-19T02:30:12;4.90;;;3.40;;
17091;SDS011;8661;45.700;4.880;2023-06-19T02:32:40;4.53;;;4.13;;
17091;SDS011;8661;45.700;4.880;2023-06-19T02:35:09;4.20;;;3.77;;
17091;SDS011;8661;45.700;4.880;2023-06-19T02:37:37;5.80;;;4.20;;
17091;SDS011;8661;45.700;4.880;2023-06-19T02:40:04;6.00;;;3.60;;
17091;SDS011;8661;45.700;4.880;2023-06-19T02:42:34;4.07;;;3.50;;
17091;SDS011;8661;45.700;4.880;2023-06-19T02:45:01;4.77;;;3.43;;
17091;SDS011;8661;45.700;4.880;2023-06-19T02:47:29;4.53;;;3.43;;
17091;SDS011;8661;45.700;4.880;2023-06-19T02:49:58;6.13;;;4.00;;
17091;SDS011;8661;45.700;4.880;2023-06-19T02:52:26;3.63;;;3.33;;
17091;SDS011;8661;45.700;4.880;2023-06-19T02:54:53;5.77;;;3.80;;
17091;SDS011;8661;45.700;4.880;2023-06-19T02:57:20;4.90;;;3.90;;
17091;SDS011;8661;45.700;4.880;2023-06-19T02:59:47;4.20;;;3.80;;
17091;SDS011;8661;45.700;4.880;2023-06-19T03:02:14;5.47;;;3.93;;
17091;SDS011;8661;45.700;4.880;2023-06-19T03:04:41;6.80;;;4.07;;
17091;SDS011;8661;45.700;4.880;2023-06-19T03:07:10;4.27;;;3.87;;
17091;SDS011;8661;45.700;4.880;2023-06-19T03:09:38;4.90;;;4.10;;
17091;SDS011;8661;45.700;4.880;2023-06-19T03:12:06;5.07;;;4.03;;
17091;SDS011;8661;45.700;4.880;2023-06-19T03:14:33;7.97;;;3.90;;
17091;SDS011;8661;45.700;4.880;2023-06-19T03:17:00;5.13;;;4.10;;
17091;SDS011;8661;45.700;4.880;2023-06-19T03:19:27;6.70;;;3.67;;
17091;SDS011;8661;45.700;4.880;2023-06-19T03:21:54;8.60;;;4.23;;
17091;SDS011;8661;45.700;4.880;2023-06-19T03:24:22;4.43;;;3.80;;
17091;SDS011;8661;45.700;4.880;2023-06-19T03:26:49;4.27;;;3.50;;
17091;SDS011;8661;45.700;4.880;2023-06-19T03:29:16;4.07;;;3.67;;
17091;SDS011;8661;45.700;4.880;2023-06-19T03:31:43;4.40;;;3.70;;
17091;SDS011;8661;45.700;4.880;2023-06-19T03:34:12;5.33;;;4.00;;
17091;SDS011;8661;45.700;4.880;2023-06-19T03:36:39;5.50;;;3.67;;
17091;SDS011;8661;45.700;4.880;2023-06-19T03:39:06;5.37;;;3.97;;
17091;SDS011;8661;45.700;4.880;2023-06-19T03:41:34;4.10;;;3.60;;
17091;SDS011;8661;45.700;4.880;2023-06-19T03:44:02;5.40;;;3.93;;
17091;SDS011;8661;45.700;4.880;2023-06-19T03:46:29;5.20;;;3.87;;
17091;SDS011;8661;45.700;4.880;2023-06-19T03:48:56;6.80;;;4.13;;
17091;SDS011;8661;45.700;4.880;2023-06-19T03:51:23;4.80;;;4.40;;
17091;SDS011;8661;45.700;4.880;2023-06-19T03:53:50;5.63;;;3.60;;
17091;SDS011;8661;45.700;4.880;2023-06-19T03:56:17;5.10;;;3.83;;
17091;SDS011;8661;45.700;4.880;2023-06-19T03:58:45;3.73;;;3.40;;
17091;SDS011;8661;45.700;4.880;2023-06-19T04:01:12;6.57;;;4.10;;
17091;SDS011;8661;45.700;4.880;2023-06-19T04:03:39;4.23;;;3.73;;
17091;SDS011;8661;45.700;4.880;2023-06-19T04:06:05;6.63;;;4.20;;
17091;SDS011;8661;45.700;4.880;2023-06-19T04:08:33;4.27;;;3.87;;
17091;SDS011;8661;45.700;4.880;2023-06-19T04:11:00;4.60;;;4.10;;
17091;SDS011;8661;45.700;4.880;2023-06-19T04:13:26;5.67;;;4.47;;
17091;SDS011;8661;45.700;4.880;2023-06-19T04:15:55;4.20;;;3.77;;
17091;SDS011;8661;45.700;4.880;2023-06-19T04:18:21;7.53;;;4.30;;
17091;SDS011;8661;45.700;4.880;2023-06-19T04:20:48;5.80;;;4.03;;
17091;SDS011;8661;45.700;4.880;2023-06-19T04:23:15;5.40;;;4.30;;
17091;SDS011;8661;45.700;4.880;2023-06-19T04:25:42;6.45;;;4.63;;
17091;SDS011;8661;45.700;4.880;2023-06-19T04:28:09;6.57;;;4.60;;
17091;SDS011;8661;45.700;4.880;2023-06-19T04:30:36;7.93;;;4.83;;
17091;SDS011;8661;45.700;4.880;2023-06-19T04:33:05;4.67;;;3.73;;
17091;SDS011;8661;45.700;4.880;2023-06-19T04:35:33;8.90;;;4.53;;
17091;SDS011;8661;45.700;4.880;2023-06-19T04:38:05;5.40;;;4.27;;
17091;SDS011;8661;45.700;4.880;2023-06-19T04:40:32;6.03;;;4.33;;
17091;SDS011;8661;45.700;4.880;2023-06-19T04:42:59;7.00;;;4.67;;
17091;SDS011;8661;45.700;4.880;2023-06-19T04:45:27;7.37;;;4.37;;
17091;SDS011;8661;45.700;4.880;2023-06-19T04:47:54;7.73;;;4.90;;
17091;SDS011;8661;45.700;4.880;2023-06-19T04:50:22;6.20;;;4.40;;
17091;SDS011;8661;45.700;4.880;2023-06-19T04:52:49;6.57;;;4.40;;
17091;SDS011;8661;45.700;4.880;2023-06-19T04:55:17;7.67;;;5.10;;
17091;SDS011;8661;45.700;4.880;2023-06-19T04:57:44;6.63;;;4.23;;
17091;SDS011;8661;45.700;4.880;2023-06-19T05:00:11;6.93;;;3.90;;
17091;SDS011;8661;45.700;4.880;2023-06-19T05:02:39;4.23;;;3.83;;
17091;SDS011;8661;45.700;4.880;2023-06-19T05:05:09;6.50;;;4.37;;
17091;SDS011;8661;45.700;4.880;2023-06-19T05:07:37;7.77;;;4.40;;
17091;SDS011;8661;45.700;4.880;2023-06-19T05:10:04;8.30;;;4.30;;
17091;SDS011;8661;45.700;4.880;2023-06-19T05:12:34;5.50;;;4.60;;
17091;SDS011;8661;45.700;4.880;2023-06-19T05:15:01;5.67;;;4.30;;
17091;SDS011;8661;45.700;4.880;2023-06-19T05:17:29;5.17;;;4.00;;
17091;SDS011;8661;45.700;4.880;2023-06-19T05:19:56;4.60;;;4.10;;
17091;SDS011;8661;45.700;4.880;2023-06-19T05:22:22;4.87;;;3.77;;
17091;SDS011;8661;45.700;4.880;2023-06-19T05:24:53;5.73;;;4.10;;
17091;SDS011;8661;45.700;4.880;2023-06-19T05:27:20;5.07;;;3.80;;
17091;SDS011;8661;45.700;4.880;2023-06-19T05:29:47;4.50;;;3.87;;
17091;SDS011;8661;45.700;4.880;2023-06-19T05:32:13;6.13;;;4.37;;
17091;SDS011;8661;45.700;4.880;2023-06-19T05:34:40;6.87;;;3.97;;
17091;SDS011;8661;45.700;4.880;2023-06-19T05:37:07;5.40;;;3.87;;
17091;SDS011;8661;45.700;4.880;2023-06-19T05:39:35;5.20;;;4.30;;
17091;SDS011;8661;45.700;4.880;2023-06-19T05:42:03;5.53;;;4.07;;
17091;SDS011;8661;45.700;4.880;2023-06-19T05:44:31;5.70;;;4.20;;
17091;SDS011;8661;45.700;4.880;2023-06-19T05:46:58;4.67;;;3.93;;
17091;SDS011;8661;45.700;4.880;2023-06-19T05:49:25;5.67;;;3.90;;
17091;SDS011;8661;45.700;4.880;2023-06-19T05:51:51;5.50;;;4.13;;
17091;SDS011;8661;45.700;4.880;2023-06-19T05:54:18;6.10;;;4.10;;
17091;SDS011;8661;45.700;4.880;2023-06-19T05:56:45;10.57;;;3.60;;
17091;SDS011;8661;45.700;4.880;2023-06-19T05:59:16;5.93;;;4.30;;
17091;SDS011;8661;45.700;4.880;2023-06-19T06:01:43;4.60;;;3.90;;
17091;SDS011;8661;45.700;4.880;2023-06-19T06:04:10;4.93;;;3.90;;
17091;SDS011;8661;45.700;4.880;2023-06-19T06:06:37;6.50;;;4.00;;
17091;SDS011;8661;45.700;4.880;2023-06-19T06:09:04;7.13;;;4.27;;
17091;SDS011;8661;45.700;4.880;2023-06-19T06:11:34;5.63;;;4.10;;
17091;SDS011;8661;45.700;4.880;2023-06-19T06:14:00;4.77;;;4.27;;
17091;SDS011;8661;45.700;4.880;2023-06-19T06:16:29;7.53;;;3.93;;
17091;SDS011;8661;45.700;4.880;2023-06-19T06:18:55;8.00;;;4.23;;
17091;SDS011;8661;45.700;4.880;2023-06-19T06:21:22;8.57;;;4.47;;
17091;SDS011;8661;45.700;4.880;2023-06-19T06:23:49;7.07;;;4.30;;
17091;SDS011;8661;45.700;4.880;2023-06-19T06:26:16;6.93;;;4.60;;
17091;SDS011;8661;45.700;4.880;2023-06-19T06:28:43;6.43;;;4.40;;
17091;SDS011;8661;45.700;4.880;2023-06-19T06:31:10;5.87;;;4.50;;
17091;SDS011;8661;45.700;4.880;2023-06-19T06:33:38;7.30;;;4.40;;
17091;SDS011;8661;45.700;4.880;2023-06-19T06:36:05;6.60;;;4.53;;
17091;SDS011;8661;45.700;4.880;2023-06-19T06:38:32;7.10;;;4.00;;
17091;SDS011;8661;45.700;4.880;2023-06-19T06:40:59;6.53;;;4.10;;
17091;SDS011;8661;45.700;4.880;2023-06-19T06:43:26;6.40;;;4.60;;
17091;SDS011;8661;45.700;4.880;2023-06-19T06:45:53;7.73;;;4.50;;
17091;SDS011;8661;45.700;4.880;2023-06-19T06:48:20;5.23;;;4.43;;
17091;SDS011;8661;45.700;4.880;2023-06-19T06:50:49;5.97;;;4.13;;
17091;SDS011;8661;45.700;4.880;2023-06-19T06:53:16;11.17;;;4.47;;
17091;SDS011;8661;45.700;4.880;2023-06-19T06:55:43;4.30;;;3.83;;
17091;SDS011;8661;45.700;4.880;2023-06-19T06:58:10;5.20;;;4.37;;
17091;SDS011;8661;45.700;4.880;2023-06-19T07:00:39;6.20;;;4.57;;
17091;SDS011;8661;45.700;4.880;2023-06-19T07:03:06;5.63;;;4.40;;
17091;SDS011;8661;45.700;4.880;2023-06-19T07:05:33;6.63;;;4.50;;
17091;SDS011;8661;45.700;4.880;2023-06-19T07:08:02;6.43;;;4.27;;
17091;SDS011;8661;45.700;4.880;2023-06-19T07:10:29;4.67;;;4.00;;
17091;SDS011;8661;45.700;4.880;2023-06-19T07:12:56;5.33;;;3.93;;
17091;SDS011;8661;45.700;4.880;2023-06-19T07:15:23;6.43;;;4.40;;
17091;SDS011;8661;45.700;4.880;2023-06-19T07:17:50;10.17;;;4.53;;
17091;SDS011;8661;45.700;4.880;2023-06-19T07:20:17;4.47;;;4.00;;
17091;SDS011;8661;45.700;4.880;2023-06-19T07:22:44;5.77;;;3.90;;
17091;SDS011;8661;45.700;4.880;2023-06-19T07:25:12;6.80;;;4.17;;
17091;SDS011;8661;45.700;4.880;2023-06-19T07:27:40;6.10;;;4.00;;
17091;SDS011;8661;45.700;4.880;2023-06-19T07:30:07;5.27;;;4.07;;
17091;SDS011;8661;45.700;4.880;2023-06-19T07:32:35;5.83;;;4.70;;
17091;SDS011;8661;45.700;4.880;2023-06-19T07:35:03;5.33;;;3.57;;
17091;SDS011;8661;45.700;4.880;2023-06-19T07:37:30;6.73;;;3.93;;
17091;SDS011;8661;45.700;4.880;2023-06-19T07:39:57;5.80;;;4.03;;
17091;SDS011;8661;45.700;4.880;2023-06-19T07:42:25;4.40;;;4.00;;
17091;SDS011;8661;45.700;4.880;2023-06-19T07:44:52;6.10;;;4.13;;
17091;SDS011;8661;45.700;4.880;2023-06-19T07:47:19;6.20;;;4.30;;
17091;SDS011;8661;45.700;4.880;2023-06-19T07:49:46;6.80;;;3.90;;
17091;SDS011;8661;45.700;4.880;2023-06-19T07:52:15;5.87;;;4.00;;
17091;SDS011;8661;45.700;4.880;2023-06-19T07:54:50;6.40;;;3.90;;
17091;SDS011;8661;45.700;4.880;2023-06-19T07:57:17;7.53;;;4.10;;
17091;SDS011;8661;45.700;4.880;2023-06-19T07:59:46;5.37;;;4.00;;
17091;SDS011;8661;45.700;4.880;2023-06-19T08:02:13;5.47;;;4.20;;
17091;SDS011;8661;45.700;4.880;2023-06-19T08:04:40;6.40;;;4.23;;
17091;SDS011;8661;45.700;4.880;2023-06-19T08:07:07;7.33;;;3.77;;
17091;SDS011;8661;45.700;4.880;2023-06-19T08:09:33;4.73;;;4.00;;
17091;SDS011;8661;45.700;4.880;2023-06-19T08:12:00;5.73;;;3.60;;
17091;SDS011;8661;45.700;4.880;2023-06-19T08:14:27;6.27;;;4.13;;
17091;SDS011;8661;45.700;4.880;2023-06-19T08:16:56;5.27;;;3.77;;
17091;SDS011;8661;45.700;4.880;2023-06-19T08:19:23;4.40;;;3.87;;
17091;SDS011;8661;45.700;4.880;2023-06-19T08:21:49;6.60;;;4.10;;
17091;SDS011;8661;45.700;4.880;2023-06-19T08:24:17;7.33;;;4.03;;
17091;SDS011;8661;45.700;4.880;2023-06-19T08:26:44;4.23;;;3.27;;
17091;SDS011;8661;45.700;4.880;2023-06-19T08:29:10;3.80;;;3.50;;
17091;SDS011;8661;45.700;4.880;2023-06-19T08:31:37;4.33;;;3.30;;
17091;SDS011;8661;45.700;4.880;2023-06-19T08:34:05;4.13;;;3.73;;
17091;SDS011;8661;45.700;4.880;2023-06-19T08:36:34;5.53;;;3.53;;
17091;SDS011;8661;45.700;4.880;2023-06-19T08:39:01;7.73;;;3.87;;
17091;SDS011;8661;45.700;4.880;2023-06-19T08:41:28;4.13;;;3.27;;
17091;SDS011;8661;45.700;4.880;2023-06-19T08:43:55;5.83;;;3.73;;
17091;SDS011;8661;45.700;4.880;2023-06-19T08:46:23;4.23;;;3.80;;
17091;SDS011;8661;45.700;4.880;2023-06-19T08:48:50;4.90;;;4.10;;
17091;SDS011;8661;45.700;4.880;2023-06-19T08:51:18;4.43;;;4.00;;
17091;SDS011;8661;45.700;4.880;2023-06-19T08:53:45;4.07;;;3.67;;
17091;SDS011;8661;45.700;4.880;2023-06-19T08:56:15;4.00;;;3.60;;
17091;SDS011;8661;45.700;4.880;2023-06-19T08:58:42;4.00;;;3.60;;
17091;SDS011;8661;45.700;4.880;2023-06-19T09:01:13;3.70;;;3.40;;
17091;SDS011;8661;45.700;4.880;2023-06-19T09:03:43;4.63;;;3.70;;
17091;SDS011;8661;45.700;4.880;2023-06-19T09:06:11;5.27;;;3.57;;
17091;SDS011;8661;45.700;4.880;2023-06-19T09:08:42;5.53;;;3.70;;
17091;SDS011;8661;45.700;4.880;2023-06-19T09:11:10;6.03;;;3.60;;
17091;SDS011;8661;45.700;4.880;2023-06-19T09:13:37;4.87;;;3.43;;
17091;SDS011;8661;45.700;4.880;2023-06-19T09:16:04;4.40;;;4.00;;
17091;SDS011;8661;45.700;4.880;2023-06-19T09:18:41;6.93;;;3.57;;
17091;SDS011;8661;45.700;4.880;2023-06-19T09:21:14;4.00;;;3.50;;
17091;SDS011;8661;45.700;4.880;2023-06-19T09:23:43;4.63;;;3.70;;
17091;SDS011;8661;45.700;4.880;2023-06-19T09:26:10;5.20;;;3.97;;
17091;SDS011;8661;45.700;4.880;2023-06-19T09:28:40;4.30;;;3.40;;
17091;SDS011;8661;45.700;4.880;2023-06-19T09:31:07;4.57;;;3.87;;
17091;SDS011;8661;45.700;4.880;2023-06-19T09:33:34;4.00;;;3.60;;
17091;SDS011;8661;45.700;4.880;2023-06-19T09:36:03;4.90;;;3.70;;
17091;SDS011;8661;45.700;4.880;2023-06-19T09:38:32;5.33;;;3.87;;
17091;SDS011;8661;45.700;4.880;2023-06-19T09:41:01;6.90;;;3.60;;
17091;SDS011;8661;45.700;4.880;2023-06-19T09:43:33;5.33;;;3.90;;
17091;SDS011;8661;45.700;4.880;2023-06-19T09:46:03;4.43;;;3.97;;
17091;SDS011;8661;45.700;4.880;2023-06-19T09:48:31;4.18;;;3.78;;
17091;SDS011;8661;45.700;4.880;2023-06-19T09:51:00;6.03;;;3.42;;
17091;SDS011;8661;45.700;4.880;2023-06-19T09:53:30;5.32;;;3.85;;
17091;SDS011;8661;45.700;4.880;2023-06-19T09:55:58;4.95;;;4.00;;
17091;SDS011;8661;45.700;4.880;2023-06-19T09:58:26;5.22;;;4.00;;
17091;SDS011;8661;45.700;4.880;2023-06-19T10:00:53;6.40;;;3.78;;
17091;SDS011;8661;45.700;4.880;2023-06-19T10:03:21;4.28;;;3.60;;
17091;SDS011;8661;45.700;4.880;2023-06-19T10:05:57;3.60;;;3.25;;
17091;SDS011;8661;45.700;4.880;2023-06-19T10:08:28;4.20;;;3.17;;
17091;SDS011;8661;45.700;4.880;2023-06-19T10:10:56;5.05;;;2.88;;
17091;SDS011;8661;45.700;4.880;2023-06-19T10:13:30;3.85;;;3.05;;
17091;SDS011;8661;45.700;4.880;2023-06-19T10:15:58;5.35;;;3.30;;
17091;SDS011;8661;45.700;4.880;2023-06-19T10:18:25;6.25;;;3.85;;
17091;SDS011;8661;45.700;4.880;2023-06-19T10:20:53;4.43;;;3.22;;
17091;SDS011;8661;45.700;4.880;2023-06-19T10:23:21;5.60;;;3.33;;
17091;SDS011;8661;45.700;4.880;2023-06-19T10:25:54;4.75;;;3.65;;
17091;SDS011;8661;45.700;4.880;2023-06-19T10:28:23;5.80;;;3.50;;
17091;SDS011;8661;45.700;4.880;2023-06-19T10:30:53;4.07;;;3.47;;
17091;SDS011;8661;45.700;4.880;2023-06-19T10:33:21;4.32;;;3.20;;
17091;SDS011;8661;45.700;4.880;2023-06-19T10:35:48;4.00;;;3.60;;
17091;SDS011;8661;45.700;4.880;2023-06-19T10:38:15;3.85;;;3.55;;
17091;SDS011;8661;45.700;4.880;2023-06-19T10:40:43;7.80;;;4.05;;
17091;SDS011;8661;45.700;4.880;2023-06-19T10:43:10;4.25;;;3.58;;
17091;SDS011;8661;45.700;4.880;2023-06-19T10:45:37;3.75;;;3.45;;
17091;SDS011;8661;45.700;4.880;2023-06-19T10:48:05;6.50;;;3.65;;
17091;SDS011;8661;45.700;4.880;2023-06-19T10:50:36;3.53;;;2.78;;
17091;SDS011;8661;45.700;4.880;2023-06-19T10:53:07;5.13;;;3.88;;
17091;SDS011;8661;45.700;4.880;2023-06-19T10:55:34;4.90;;;3.90;;
17091;SDS011;8661;45.700;4.880;2023-06-19T10:58:01;3.88;;;3.47;;
17091;SDS011;8661;45.700;4.880;2023-06-19T11:00:29;6.93;;;3.45;;
17091;SDS011;8661;45.700;4.880;2023-06-19T11:02:57;5.32;;;3.90;;
17091;SDS011;8661;45.700;4.880;2023-06-19T11:05:27;5.90;;;3.88;;
17091;SDS011;8661;45.700;4.880;2023-06-19T11:07:55;5.05;;;3.78;;
17091;SDS011;8661;45.700;4.880;2023-06-19T11:10:23;5.07;;;3.47;;
17091;SDS011;8661;45.700;4.880;2023-06-19T11:12:53;3.75;;;3.45;;
17091;SDS011;8661;45.700;4.880;2023-06-19T11:15:27;4.82;;;3.50;;
17091;SDS011;8661;45.700;4.880;2023-06-19T11:17:55;5.80;;;3.90;;
17091;SDS011;8661;45.700;4.880;2023-06-19T11:20:22;4.20;;;3.55;;
17091;SDS011;8661;45.700;4.880;2023-06-19T11:22:54;4.18;;;3.75;;
17091;SDS011;8661;45.700;4.880;2023-06-19T11:25:22;5.63;;;3.70;;
17091;SDS011;8661;45.700;4.880;2023-06-19T11:27:49;3.85;;;3.42;;
17091;SDS011;8661;45.700;4.880;2023-06-19T11:30:17;7.00;;;3.55;;
17091;SDS011;8661;45.700;4.880;2023-06-19T11:32:45;8.13;;;4.20;;
17091;SDS011;8661;45.700;4.880;2023-06-19T11:35:15;6.65;;;3.88;;
17091;SDS011;8661;45.700;4.880;2023-06-19T11:37:43;4.78;;;3.60;;
17091;SDS011;8661;45.700;4.880;2023-06-19T11:40:11;4.32;;;3.80;;
17091;SDS011;8661;45.700;4.880;2023-06-19T11:42:51;5.75;;;3.70;;
17091;SDS011;8661;45.700;4.880;2023-06-19T11:45:21;6.75;;;3.60;;
17091;SDS011;8661;45.700;4.880;2023-06-19T11:47:48;3.88;;;3.47;;
17091;SDS011;8661;45.700;4.880;2023-06-19T11:50:16;5.32;;;3.50;;
17091;SDS011;8661;45.700;4.880;2023-06-19T11:52:46;5.30;;;3.60;;
17091;SDS011;8661;45.700;4.880;2023-06-19T11:55:14;4.50;;;3.40;;
17091;SDS011;8661;45.700;4.880;2023-06-19T11:57:42;4.43;;;2.90;;
17091;SDS011;8661;45.700;4.880;2023-06-19T12:00:15;3.55;;;3.15;;
17091;SDS011;8661;45.700;4.880;2023-06-19T12:02:43;4.13;;;3.08;;
17091;SDS011;8661;45.700;4.880;2023-06-19T12:05:12;4.18;;;3.45;;
17091;SDS011;8661;45.700;4.880;2023-06-19T12:07:40;3.88;;;3.10;;
17091;SDS011;8661;45.700;4.880;2023-06-19T12:10:07;6.97;;;3.53;;
17091;SDS011;8661;45.700;4.880;2023-06-19T12:12:38;5.85;;;3.60;;
17091;SDS011;8661;45.700;4.880;2023-06-19T12:15:06;9.85;;;3.60;;
17091;SDS011;8661;45.700;4.880;2023-06-19T12:17:33;4.15;;;3.10;;
17091;SDS011;8661;45.700;4.880;2023-06-19T12:20:00;5.88;;;2.95;;
17091;SDS011;8661;45.700;4.880;2023-06-19T12:22:30;4.13;;;3.00;;
17091;SDS011;8661;45.700;4.880;2023-06-19T12:24:57;6.45;;;3.00;;
17091;SDS011;8661;45.700;4.880;2023-06-19T12:27:24;4.68;;;3.45;;
17091;SDS011;8661;45.700;4.880;2023-06-19T12:29:52;5.82;;;2.97;;
17091;SDS011;8661;45.700;4.880;2023-06-19T12:32:20;3.17;;;2.88;;
17091;SDS011;8661;45.700;4.880;2023-06-19T12:34:47;3.90;;;3.13;;
17091;SDS011;8661;45.700;4.880;2023-06-19T12:37:14;4.85;;;2.80;;
17091;SDS011;8661;45.700;4.880;2023-06-19T12:39:42;3.70;;;3.03;;
17091;SDS011;8661;45.700;4.880;2023-06-19T12:42:09;3.88;;;3.20;;
17091;SDS011;8661;45.700;4.880;2023-06-19T12:44:38;4.93;;;3.35;;
17091;SDS011;8661;45.700;4.880;2023-06-19T12:47:07;3.63;;;2.75;;
17091;SDS011;8661;45.700;4.880;2023-06-19T12:49:34;5.93;;;3.00;;
17091;SDS011;8661;45.700;4.880;2023-06-19T12:52:01;6.30;;;3.08;;
17091;SDS011;8661;45.700;4.880;2023-06-19T12:54:28;5.30;;;3.30;;
17091;SDS011;8661;45.700;4.880;2023-06-19T12:56:55;3.35;;;2.90;;
17091;SDS011;8661;45.700;4.880;2023-06-19T12:59:22;3.40;;;2.33;;
17091;SDS011;8661;45.700;4.880;2023-06-19T13:01:49;6.38;;;3.45;;
17091;SDS011;8661;45.700;4.880;2023-06-19T13:04:18;4.13;;;3.00;;
17091;SDS011;8661;45.700;4.880;2023-06-19T13:06:44;4.25;;;3.00;;
17091;SDS011;8661;45.700;4.880;2023-06-19T13:09:11;5.65;;;2.72;;
17091;SDS011;8661;45.700;4.880;2023-06-19T13:11:38;6.40;;;3.55;;
17091;SDS011;8661;45.700;4.880;2023-06-19T13:14:05;5.00;;;3.38;;
17091;SDS011;8661;45.700;4.880;2023-06-19T13:16:32;7.20;;;3.50;;
17091;SDS011;8661;45.700;4.880;2023-06-19T13:18:59;5.20;;;3.03;;
17091;SDS011;8661;45.700;4.880;2023-06-19T13:21:27;6.10;;;3.20;;
17091;SDS011;8661;45.700;4.880;2023-06-19T13:23:54;3.60;;;2.72;;
17091;SDS011;8661;45.700;4.880;2023-06-19T13:26:21;3.72;;;3.35;;
17091;SDS011;8661;45.700;4.880;2023-06-19T13:28:48;3.92;;;3.30;;
17091;SDS011;8661;45.700;4.880;2023-06-19T13:31:15;4.43;;;3.60;;
17091;SDS011;8661;45.700;4.880;2023-06-19T13:33:42;8.00;;;3.17;;
17091;SDS011;8661;45.700;4.880;2023-06-19T13:36:09;3.47;;;3.17;;
17091;SDS011;8661;45.700;4.880;2023-06-19T13:38:37;4.10;;;3.03;;
17091;SDS011;8661;45.700;4.880;2023-06-19T13:41:04;4.63;;;2.92;;
17091;SDS011;8661;45.700;4.880;2023-06-19T13:43:31;7.60;;;3.60;;
17091;SDS011;8661;45.700;4.880;2023-06-19T13:45:58;4.45;;;3.40;;
17091;SDS011;8661;45.700;4.880;2023-06-19T13:48:26;5.45;;;3.38;;
17091;SDS011;8661;45.700;4.880;2023-06-19T13:50:53;4.85;;;3.47;;
17091;SDS011;8661;45.700;4.880;2023-06-19T13:53:19;6.10;;;3.13;;
17091;SDS011;8661;45.700;4.880;2023-06-19T13:55:48;9.98;;;2.80;;
17091;SDS011;8661;45.700;4.880;2023-06-19T13:58:15;4.35;;;3.30;;
17091;SDS011;8661;45.700;4.880;2023-06-19T14:00:42;3.55;;;3.13;;
17091;SDS011;8661;45.700;4.880;2023-06-19T14:03:09;3.88;;;3.10;;
17091;SDS011;8661;45.700;4.880;2023-06-19T14:05:35;5.82;;;3.35;;
17091;SDS011;8661;45.700;4.880;2023-06-19T14:08:03;3.90;;;3.20;;
17091;SDS011;8661;45.700;4.880;2023-06-19T14:10:30;4.60;;;3.28;;
17091;SDS011;8661;45.700;4.880;2023-06-19T14:12:59;3.50;;;3.13;;
17091;SDS011;8661;45.700;4.880;2023-06-19T14:15:25;3.47;;;3.17;;
17091;SDS011;8661;45.700;4.880;2023-06-19T14:17:52;5.50;;;3.42;;
17091;SDS011;8661;45.700;4.880;2023-06-19T14:20:19;4.85;;;3.30;;
17091;SDS011;8661;45.700;4.880;2023-06-19T14:22:46;3.83;;;3.15;;
17091;SDS011;8661;45.700;4.880;2023-06-19T14:25:13;4.68;;;3.30;;
17091;SDS011;8661;45.700;4.880;2023-06-19T14:27:40;3.63;;;3.30;;
17091;SDS011;8661;45.700;4.880;2023-06-19T14:30:08;6.35;;;3.55;;
17091;SDS011;8661;45.700;4.880;2023-06-19T14:32:36;4.10;;;3.70;;
17091;SDS011;8661;45.700;4.880;2023-06-19T14:35:04;5.55;;;3.78;;
17091;SDS011;8661;45.700;4.880;2023-06-19T14:37:31;4.25;;;3.55;;
17091;SDS011;8661;45.700;4.880;2023-06-19T14:39:58;3.80;;;3.40;;
17091;SDS011;8661;45.700;4.880;2023-06-19T14:42:25;4.95;;;3.50;;
17091;SDS011;8661;45.700;4.880;2023-06-19T14:44:52;3.97;;;3.67;;
17091;SDS011;8661;45.700;4.880;2023-06-19T14:47:20;3.97;;;3.30;;
17091;SDS011;8661;45.700;4.880;2023-06-19T14:49:47;5.75;;;3.83;;
17091;SDS011;8661;45.700;4.880;2023-06-19T14:52:14;5.50;;;4.03;;
17091;SDS011;8661;45.700;4.880;2023-06-19T14:54:42;6.57;;;4.30;;
17091;SDS011;8661;45.700;4.880;2023-06-19T14:57:08;5.33;;;3.83;;
17091;SDS011;8661;45.700;4.880;2023-06-19T14:59:35;5.30;;;4.20;;
17091;SDS011;8661;45.700;4.880;2023-06-19T15:02:02;4.40;;;4.00;;
17091;SDS011;8661;45.700;4.880;2023-06-19T15:04:33;4.73;;;4.07;;